METAR Data
IDs: Format: Raw Decoded Include TAF

Data at: 2023 UTC 18 Oct 2018

KETN 182015Z AUTO 08006KT 10SM OVC027 15/11 A3031 RMK AO2 T01470107
KETN 181955Z AUTO 09005KT 10SM OVC027 15/11 A3032 RMK AO2 T01470106
KETN 181935Z AUTO 09005KT 10SM OVC027 15/10 A3033 RMK AO2 T01460102
KETN 181915Z AUTO 09006KT 10SM OVC027 15/10 A3033 RMK AO2 T01490102
KETN 181855Z AUTO 10007KT 10SM SCT023 OVC029 15/10 A3034 RMK AO2 T01470101
KETN 181835Z AUTO 09009KT 10SM SCT023 OVC031 15/11 A3036 RMK AO2 T01490106
KETN 181815Z AUTO 10007KT 10SM OVC031 15/10 A3037 RMK AO2 T01520103
KETN 181755Z AUTO 09008KT 10SM OVC031 15/10 A3038 RMK AO2 T01540103 10155 20084 60002
KETN 181735Z AUTO 11008KT 10SM BKN031 OVC060 15/11 A3038 RMK AO2 T01500105
KETN 181715Z AUTO 09007KT 10SM BKN033 OVC060 14/10 A3039 RMK AO2 T01380098
KETN 181655Z AUTO 06008KT 10SM OVC033 13/10 A3040 RMK AO2 T01310098
KETN 181635Z AUTO 05008KT 10SM OVC033 13/10 A3041 RMK AO2 LTG DSNT W T01260099
KETN 181615Z AUTO 04005KT 10SM OVC035 12/10 A3041 RMK AO2 T01220099
KETN 181555Z AUTO 05003KT 10SM OVC037 12/10 A3041 RMK AO2 T01180101
KETN 181535Z AUTO 02007KT 10SM OVC037 11/10 A3041 RMK AO2 T01140098
KETN 181515Z AUTO 02007KT 10SM OVC037 11/10 A3042 RMK AO2 T01100097
KETN 181455Z AUTO 02006KT 10SM OVC037 11/09 A3042 RMK AO2 T01060094 60002
KETN 181435Z AUTO 02005KT 10SM OVC037 10/09 A3041 RMK AO2 T01040094
KETN 181415Z AUTO 02006KT 10SM OVC037 10/09 A3041 RMK AO2 T00980090
KETN 181355Z AUTO 02006KT 10SM OVC035 09/09 A3040 RMK AO2 T00940089
KETN 181335Z AUTO 01005KT 10SM OVC035 09/09 A3039 RMK AO2 T00900085
KETN 181315Z AUTO 01007KT 10SM OVC035 09/08 A3039 RMK AO2 T00890084
KETN 181255Z AUTO 36006KT 10SM -RA OVC035 09/08 A3039 RMK AO2 P0002 T00860082
KETN 181235Z AUTO 35008KT 10SM -DZ OVC033 08/08 A3039 RMK AO2 P0002 T00840081
KETN 181215Z AUTO 35006KT 7SM -DZ BR OVC029 08/08 A3039 RMK AO2 P0002 T00840081
KETN 181155Z AUTO 02005KT 5SM -DZ BR SCT022 OVC029 08/08 A3040 RMK AO2 P0001 T00840081 10084 20070 60007 70266
KETN 181135Z AUTO 02004KT 10SM -DZ SCT020 OVC029 08/08 A3040 RMK AO2 P0001 T00820079
KETN 181115Z AUTO 34004KT 3SM -RA BR SCT005 BKN020 OVC029 08/08 A3040 RMK AO2 VIS 2 1/2V3 1/2 P0001 T00800077
KETN 181055Z AUTO 02005KT 5SM -DZ BR BKN005 OVC023 08/08 A3040 RMK AO2 P0001 T00790076
KETN 181035Z AUTO 36003KT 7SM -DZ OVC005 08/07 A3039 RMK AO2 P0001 T00770074
KETN 181015Z AUTO 34003KT 5SM -DZ BR SCT007 BKN019 OVC025 08/07 A3039 RMK AO2 P0001 T00760074
KETN 180955Z AUTO 35003KT 4SM -RA BR SCT010 BKN013 OVC025 07/07 A3038 RMK AO2 P0002 T00740071
KETN 180935Z AUTO 01003KT 4SM -DZ BR BKN008 BKN014 OVC025 07/07 A3038 RMK AO2 P0002 T00730069
KETN 180915Z AUTO 00000KT 7SM -DZ BR SCT004 BKN010 OVC025 07/07 A3039 RMK AO2 T00720068
KETN 180855Z AUTO 34004KT 5SM -DZ BR SCT004 SCT009 OVC025 07/07 A3039 RMK AO2 P0001 T00730069 60001
KETN 180835Z AUTO 33003KT 10SM -DZ OVC025 07/07 A3039 RMK AO2 P0001 T00730069
KETN 180815Z AUTO 32003KT 10SM OVC025 07/07 A3039 RMK AO2 T00740069
KETN 180755Z AUTO 00000KT 10SM -DZ OVC023 07/07 A3040 RMK AO2 T00730066
KETN 180735Z AUTO 00000KT 10SM -DZ OVC023 07/07 A3040 RMK AO2 T00720066
KETN 180715Z AUTO 03003KT 10SM OVC023 07/07 A3041 RMK AO2 T00720067
KETN 180655Z AUTO 00000KT 10SM -DZ OVC023 07/07 A3041 RMK AO2 T00720066
KETN 180635Z AUTO 02005KT 10SM -DZ SCT007 OVC021 07/07 A3041 RMK AO2 T00710066
KETN 180615Z AUTO 03006KT 7SM SCT007 BKN014 OVC021 07/07 A3041 RMK AO2 T00700065
KETN 180555Z AUTO 02005KT 10SM -RA OVC014 07/07 A3041 RMK AO2 P0003 T00700065 10077 20069 60063
KETN 180535Z AUTO 04005KT 7SM -RA BR OVC012 07/06 A3042 RMK AO2 P0003 T00700065
KETN 180515Z AUTO 04008KT 7SM -RA BKN007 OVC011 07/06 A3042 RMK AO2 P0001 T00710065
KETN 180455Z AUTO 04007KT 7SM -RA BR OVC007 07/07 A3042 RMK AO2 P0002 T00740068
KETN 180435Z AUTO 05004KT 10SM -RA OVC007 07/07 A3042 RMK AO2 P0002 T00750069
KETN 180415Z AUTO 02007KT 10SM -RA OVC007 08/07 A3042 RMK AO2 T00760071
KETN 180355Z AUTO 01004KT 10SM -RA OVC005 07/07 A3042 RMK AO2 P0006 T00750071
KETN 180335Z AUTO 03005KT 10SM -RA OVC007 07/07 A3042 RMK AO2 P0005 T00750071
KETN 180315Z AUTO 01005KT 10SM -RA OVC007 07/07 A3041 RMK AO2 P0002 T00740070
KETN 180255Z AUTO 36005KT 10SM -RA OVC007 07/07 A3041 RMK AO2 P0003 T00750071 60052
KETN 180235Z AUTO 35003KT 10SM -RA OVC007 07/07 A3041 RMK AO2 P0002 T00740070
KETN 180215Z AUTO 01004KT 10SM -RA OVC005 07/07 A3041 RMK AO2 P0002 T00730069
KETN 180155Z AUTO 03005KT 10SM -RA BKN007 BKN013 OVC020 07/07 A3040 RMK AO2 P0019 T00730069
KETN 180135Z AUTO 03005KT 5SM RA BR BKN007 BKN015 OVC043 07/07 A3039 RMK AO2 P0018 T00720068
KETN 180115Z AUTO 04008KT 5SM RA BR BKN005 BKN024 OVC041 07/07 A3039 RMK AO2 P0009 T00720067
KETN 180055Z AUTO 03004KT 7SM RA BR OVC005 07/07 A3040 RMK AO2 P0028 T00710066
KETN 180035Z AUTO 04007KT 4SM RA BR OVC007 07/06 A3039 RMK AO2 P0022 T00700064
KETN 180015Z AUTO 04008KT 5SM RA BR OVC007 07/07 A3039 RMK AO2 P0009 T00720066
KETN 172355Z AUTO 03009KT 4SM RA BR OVC007 07/07 A3038 RMK AO2 P0022 T00730067 10075 20070 400880057 60155
KETN 172335Z AUTO 03009KT 3 1/2SM RA BR OVC007 07/07 A3038 RMK AO2 P0015 T00720066
KETN 172315Z AUTO 04008KT 5SM RA BR OVC007 07/06 A3037 RMK AO2 P0007 T00710064
KETN 172255Z AUTO 04009KT 010V070 5SM RA BR OVC009 07/06 A3037 RMK AO2 P0017 T00710064
KETN 172235Z AUTO 04006KT 7SM RA BR OVC011 07/06 A3037 RMK AO2 P0009 T00710063
KETN 172215Z AUTO 03007KT 7SM -RA OVC009 07/06 A3038 RMK AO2 P0005 T00700062
KETN 172155Z AUTO 04011G15KT 7SM RA OVC009 07/06 A3038 RMK AO2 P0014 T00710062
KETN 172135Z AUTO 04007KT 10SM RA SCT011 BKN070 OVC090 07/06 A3038 RMK AO2 P0008 T00720063
KETN 172115Z AUTO 04013G17KT 7SM RA BR SCT011 BKN055 OVC075 07/06 A3038 RMK AO2 P0005 T00720060
KETN 172055Z AUTO 04009KT 7SM RA SCT010 BKN070 OVC080 07/06 A3039 RMK AO2 P0028 T00740065 60100
KETN 172035Z AUTO 04010G18KT 5SM RA BR SCT010 SCT021 OVC070 07/06 A3038 RMK AO2 P0022 T00730063
KETN 172015Z AUTO 01007KT 5SM RA BR SCT012 SCT028 OVC055 07/07 A3039 RMK AO2 P0010 T00740066
KETN 171955Z AUTO 02007KT 5SM +RA BR SCT010 BKN055 OVC065 07/07 A3039 RMK AO2 P0036 T00730065
KETN 171935Z AUTO 03006KT 5SM +RA BR SCT009 BKN035 OVC055 07/06 A3039 RMK AO2 P0024 T00720065
KETN 171915Z AUTO 36006KT 5SM +RA BR SCT036 OVC065 07/06 A3039 RMK AO2 P0010 T00720064
KETN 171855Z AUTO 02007KT 5SM RA BR SCT029 BKN047 OVC070 07/06 A3040 RMK AO2 P0031 T00710062
KETN 171835Z AUTO 36006KT 7SM RA SCT029 BKN036 OVC050 07/06 A3041 RMK AO2 P0018 T00700060
KETN 171815Z AUTO 35007KT 7SM +RA BR SCT027 BKN034 OVC060 07/06 A3040 RMK AO2 P0009 T00700061
KETN 171755Z AUTO 35006KT 7SM +RA BR BKN028 OVC036 07/06 A3041 RMK AO2 P0023 T00710061 10088 20071 60041
KETN 171735Z AUTO 33007KT 5SM +RA BR BKN026 OVC034 07/07 A3041 RMK AO2 P0014 T00750065
KETN 171715Z AUTO 29005KT 5SM RA BR OVC026 08/07 A3041 RMK AO2 P0003 T00790065
KETN 171655Z AUTO 34003KT 10SM RA OVC024 08/06 A3038 RMK AO2 P0006 T00810064
KETN 171635Z AUTO 01005KT 10SM -RA OVC024 08/06 A3037 RMK AO2 P0002 T00820062
KETN 171615Z AUTO 01008KT 10SM -RA OVC026 08/06 A3037 RMK AO2 P0001 T00820060
KETN 171555Z AUTO 01008KT 10SM -RA BKN026 OVC060 09/06 A3037 RMK AO2 P0001 T00870065
KETN 171535Z AUTO 36008KT 10SM -RA SCT026 OVC060 09/07 A3036 RMK AO2 P0001 T00870067
KETN 171515Z AUTO 01008KT 10SM -RA SCT026 SCT046 OVC060 09/07 A3036 RMK AO2 P0001 T00870068
KETN 171455Z AUTO 02008KT 10SM -RA OVC026 08/07 A3036 RMK AO2 P0006 T00840070 60011
KETN 171435Z AUTO 35007KT 10SM -RA SCT030 BKN046 OVC050 08/07 A3036 RMK AO2 P0004 T00820067
KETN 171415Z AUTO 35005KT 10SM -RA BKN028 BKN035 OVC044 08/07 A3035 RMK AO2 P0003 T00810070
KETN 171355Z AUTO 35005KT 7SM RA BKN023 OVC028 08/07 A3035 RMK AO2 P0005 T00810068
KETN 171335Z AUTO 36006KT 10SM -RA OVC021 08/06 A3033 RMK AO2 T00840065
KETN 171315Z AUTO 36006KT 10SM OVC023 08/07 A3033 RMK AO2 T00840065
KETN 171255Z AUTO 36007KT 10SM OVC023 08/06 A3032 RMK AO2 T00840063
KETN 171235Z AUTO 36006KT 10SM -RA OVC021 08/07 A3031 RMK AO2 T00820067
KETN 171215Z AUTO 35006KT 10SM -RA OVC019 08/07 A3031 RMK AO2 T00830066
KETN 171155Z AUTO 36007KT 10SM -RA OVC019 08/07 A3030 RMK AO2 T00840067 10085 20071 70062
KETN 171135Z AUTO 01005KT 10SM -RA OVC021 08/07 A3030 RMK AO2 T00840069
KETN 171115Z AUTO 35005KT 10SM -RA OVC019 08/07 A3030 RMK AO2 T00850067
KETN 171055Z AUTO 35003KT 10SM -DZ OVC019 08/06 A3029 RMK AO2 T00850065
KETN 171035Z AUTO 35005KT 10SM -RA BKN019 BKN030 OVC040 08/06 A3029 RMK AO2 T00840063
KETN 171015Z AUTO 36008KT 10SM SCT018 BKN027 OVC040 08/06 A3027 RMK AO2 T00830063
KETN 170955Z AUTO 36006KT 10SM OVC018 08/06 A3028 RMK AO2 T00820063
KETN 170935Z AUTO 35005KT 10SM OVC018 08/06 A3029 RMK AO2 T00810062
KETN 170915Z AUTO 35005KT 10SM -DZ OVC018 08/06 A3028 RMK AO2 T00800065
KETN 170855Z AUTO 35005KT 10SM OVC018 08/06 A3029 RMK AO2 T00810063
KETN 170835Z AUTO 36005KT 10SM OVC018 08/06 A3030 RMK AO2 T00800062